createdAt,value
2018-05-08T00:00:49.326Z,79.80
2018-05-08T00:05:51.532Z,81.30
2018-05-08T00:10:52.993Z,80.60
2018-05-08T00:15:54.482Z,80.60
2018-05-08T00:20:55.950Z,80.80
2018-05-08T00:25:57.473Z,80.40
2018-05-08T00:30:59.686Z,80.40
2018-05-08T00:36:01.138Z,80.40
2018-05-08T00:41:02.579Z,80.90
2018-05-08T00:46:05.157Z,80.90
2018-05-08T00:51:06.622Z,79.80
2018-05-08T00:56:08.111Z,81.20
2018-05-08T01:01:09.571Z,82.70
2018-05-08T01:06:11.690Z,82.80
2018-05-08T01:11:13.161Z,82.80
2018-05-08T01:16:14.734Z,81.90
2018-05-08T01:21:16.948Z,83.10
2018-05-08T01:26:18.472Z,83.10
2018-05-08T01:31:19.891Z,83.60
2018-05-08T01:36:21.412Z,83.30
2018-05-08T01:41:22.822Z,81.60
2018-05-08T01:46:24.396Z,82.70
2018-05-08T01:51:26.446Z,83.70
2018-05-08T01:56:27.776Z,83.70
2018-05-08T02:01:29.133Z,83.30
2018-05-08T02:06:31.577Z,82.30
2018-05-08T02:11:32.971Z,83.50
2018-05-08T02:16:35.154Z,84.80
2018-05-08T02:21:37.297Z,83.20
2018-05-08T02:26:38.691Z,83.30
2018-05-08T02:31:40.169Z,83.90
2018-05-08T02:36:41.624Z,84.70
2018-05-08T02:41:44.129Z,85.50
2018-05-08T02:46:46.680Z,85.20
2018-05-08T02:51:49.056Z,84.20
2018-05-08T02:56:50.489Z,83.80
2018-05-08T03:01:52.745Z,84.70
2018-05-08T03:06:54.178Z,84.70
2018-05-08T03:11:55.648Z,84.10
2018-05-08T03:16:57.084Z,84.60
2018-05-08T03:21:58.515Z,85.70
2018-05-08T03:26:59.826Z,85.30
2018-05-08T03:32:01.057Z,85.30
2018-05-08T03:37:02.380Z,85.90
2018-05-08T03:42:03.781Z,85.50
2018-05-08T03:47:06.105Z,85.70
2018-05-08T03:52:07.577Z,86.20
2018-05-08T03:57:09.067Z,84.40
2018-05-08T04:02:22.524Z,85.30
2018-05-08T04:07:36.255Z,86.20
2018-05-08T04:12:37.632Z,86.10
2018-05-08T04:17:39.751Z,84.90
2018-05-08T04:22:41.683Z,85.00
2018-05-08T04:27:43.753Z,83.90
2018-05-08T04:32:45.139Z,84.00
2018-05-08T04:37:47.290Z,80.30
2018-05-08T04:42:48.759Z,80.40
2018-05-08T04:47:50.303Z,74.90
2018-05-08T04:52:51.736Z,68.50
2018-05-08T04:57:53.292Z,62.80
2018-05-08T05:02:56.394Z,56.60
2018-05-08T05:07:58.615Z,55.60
2018-05-08T05:13:00.030Z,55.60
2018-05-08T05:18:03.452Z,51.70
2018-05-08T05:23:04.902Z,51.60
2018-05-08T05:28:07.176Z,48.70
2018-05-08T05:33:08.531Z,48.60
2018-05-08T05:38:10.074Z,49.70
2018-05-08T05:43:16.103Z,50.90
2018-05-08T05:48:18.311Z,55.10
2018-05-08T05:53:20.929Z,54.70
2018-05-08T05:58:23.092Z,57.70
2018-05-08T06:03:24.497Z,57.60
2018-05-08T06:08:25.923Z,54.70
2018-05-08T06:13:27.297Z,49.60
2018-05-08T06:18:28.957Z,46.60
2018-05-08T06:23:31.391Z,43.60
2018-05-08T06:28:32.895Z,40.40
2018-05-08T06:33:34.528Z,39.90
2018-05-08T06:38:37.092Z,39.90
2018-05-08T06:43:38.522Z,42.00
2018-05-08T06:48:40.001Z,41.50
2018-05-08T06:53:41.500Z,40.70
2018-05-08T06:58:43.057Z,43.00
2018-05-08T07:03:44.558Z,43.10
2018-05-08T07:08:46.073Z,41.20
2018-05-08T07:13:47.460Z,44.30
2018-05-08T07:18:49.074Z,43.20
2018-05-08T07:23:51.582Z,42.30
2018-05-08T07:28:53.014Z,44.60
2018-05-08T07:33:55.536Z,46.00
2018-05-08T07:38:58.089Z,44.60
2018-05-08T07:43:59.664Z,44.40
2018-05-08T07:49:02.162Z,45.30
2018-05-08T07:54:04.398Z,43.10
2018-05-08T07:59:06.888Z,42.90
2018-05-08T08:04:08.331Z,42.90
2018-05-08T08:09:09.812Z,42.20
2018-05-08T08:14:11.372Z,42.60
2018-05-08T08:19:12.806Z,43.00
2018-05-08T08:24:14.201Z,42.20
2018-05-08T08:29:16.502Z,42.10
2018-05-08T08:34:17.783Z,39.90
2018-05-08T08:39:21.189Z,38.00
2018-05-08T08:44:22.583Z,37.00
2018-05-08T08:49:24.773Z,36.80
2018-05-08T08:54:31.638Z,36.80
2018-05-08T08:59:33.145Z,36.00
2018-05-08T09:04:35.616Z,35.40
2018-05-08T09:09:37.851Z,31.90
2018-05-08T09:14:39.361Z,31.80
2018-05-08T09:19:40.891Z,32.60
2018-05-08T09:24:45.146Z,31.50
2018-05-08T09:29:46.637Z,31.40
2018-05-08T09:34:48.840Z,30.10
2018-05-08T09:39:50.371Z,30.00
2018-05-08T09:44:52.584Z,30.30
2018-05-08T09:49:54.027Z,30.20
2018-05-08T09:54:58.547Z,30.70
2018-05-08T10:00:00.167Z,32.30
2018-05-08T10:05:02.593Z,32.30
2018-05-08T10:10:04.933Z,32.10
2018-05-08T10:15:06.979Z,32.00
2018-05-08T10:20:08.517Z,33.10
2018-05-08T10:25:10.985Z,32.90
2018-05-08T10:30:12.332Z,32.60
2018-05-08T10:35:13.819Z,32.60
2018-05-08T10:40:15.265Z,35.10
2018-05-08T10:45:16.786Z,33.30
2018-05-08T10:50:18.385Z,33.70
2018-05-08T10:55:19.857Z,32.90
2018-05-08T11:00:22.487Z,33.00
2018-05-08T11:05:24.030Z,30.50
2018-05-08T11:10:25.734Z,30.00
2018-05-08T11:15:27.125Z,30.10
2018-05-08T11:20:31.479Z,30.40
2018-05-08T11:25:33.689Z,29.20
2018-05-08T11:30:38.709Z,29.30
2018-05-08T11:35:41.834Z,29.40
2018-05-08T11:40:43.249Z,29.40
2018-05-08T11:45:45.106Z,27.90
2018-05-08T11:50:49.260Z,28.40
2018-05-08T11:55:53.631Z,28.80
2018-05-08T12:00:55.290Z,28.50
2018-05-08T12:05:57.471Z,27.90
2018-05-08T12:10:58.960Z,27.30
2018-05-08T12:16:01.108Z,28.50
2018-05-08T12:21:02.759Z,27.10
2018-05-08T12:26:04.115Z,27.00
2018-05-08T12:31:05.407Z,27.10
2018-05-08T12:36:09.445Z,27.30
2018-05-08T12:41:12.558Z,26.10
2018-05-08T12:46:13.889Z,26.10
2018-05-08T12:51:15.362Z,26.90
2018-05-08T12:56:16.938Z,26.40
2018-05-08T13:01:18.425Z,28.00
2018-05-08T13:06:21.861Z,26.80
2018-05-08T13:11:24.576Z,25.80
2018-05-08T13:16:26.142Z,25.70
2018-05-08T13:21:27.614Z,25.50
2018-05-08T13:26:29.200Z,26.50
2018-05-08T13:31:30.810Z,27.30
2018-05-08T13:36:32.318Z,26.40
2018-05-08T13:41:34.731Z,25.40
2018-05-08T13:46:38.000Z,24.70
2018-05-08T13:51:39.507Z,24.60
2018-05-08T13:56:41.746Z,24.20
2018-05-08T14:01:43.372Z,24.10
2018-05-08T14:06:48.583Z,23.90
2018-05-08T14:11:50.133Z,23.10
2018-05-08T14:16:51.726Z,21.30
2018-05-08T14:22:02.543Z,20.90
2018-05-08T14:27:06.004Z,20.60
2018-05-08T14:32:09.541Z,20.80
2018-05-08T14:37:12.054Z,21.00
2018-05-08T14:42:14.259Z,19.80
2018-05-08T14:47:16.424Z,19.90
2018-05-08T14:52:18.879Z,19.00
2018-05-08T14:57:20.382Z,19.30
2018-05-08T15:02:21.935Z,22.20
2018-05-08T15:07:24.205Z,20.50
2018-05-08T15:12:25.579Z,19.90
2018-05-08T15:17:28.995Z,20.10
2018-05-08T15:22:31.294Z,21.40
2018-05-08T15:27:32.721Z,21.30
2018-05-08T15:32:34.347Z,20.00
2018-05-08T15:37:36.735Z,20.90
2018-05-08T15:42:38.126Z,19.80
2018-05-08T15:47:39.558Z,19.70
2018-05-08T15:52:42.092Z,20.70
2018-05-08T15:57:43.623Z,20.70
2018-05-08T16:02:45.044Z,20.20
2018-05-08T16:07:46.649Z,20.10
2018-05-08T16:12:48.108Z,20.00
2018-05-08T16:17:49.505Z,20.40
2018-05-08T16:22:50.995Z,19.50
2018-05-08T16:27:52.640Z,20.40
2018-05-08T16:32:55.035Z,20.60
2018-05-08T16:37:56.471Z,20.20
2018-05-08T16:42:57.968Z,21.70
2018-05-08T16:47:59.704Z,21.70
2018-05-08T16:53:01.149Z,21.70
2018-05-08T16:58:02.601Z,21.70
2018-05-08T17:03:04.141Z,20.90
2018-05-08T17:08:05.502Z,21.90
2018-05-08T17:13:07.026Z,20.90
2018-05-08T17:18:09.596Z,21.70
2018-05-08T17:23:11.787Z,22.40
2018-05-08T17:28:15.026Z,22.70
2018-05-08T17:33:16.498Z,22.70
2018-05-08T17:38:17.987Z,22.20
2018-05-08T17:43:20.489Z,21.80
2018-05-08T17:48:23.955Z,21.80
2018-05-08T17:53:25.404Z,22.30
2018-05-08T17:58:27.651Z,23.40
2018-05-08T18:03:29.407Z,23.80
2018-05-08T18:08:30.733Z,24.10
2018-05-08T18:13:33.081Z,26.50
2018-05-08T18:18:35.442Z,26.40
2018-05-08T18:23:41.369Z,28.20
2018-05-08T18:28:42.734Z,29.80
2018-05-08T18:33:44.230Z,31.60
2018-05-08T18:38:47.729Z,33.70
2018-05-08T18:43:49.206Z,36.00
2018-05-08T18:48:51.326Z,40.10
2018-05-08T18:53:53.740Z,39.60
2018-05-08T18:58:56.160Z,44.30
2018-05-08T19:03:57.665Z,44.20
2018-05-08T19:09:00.191Z,47.10
2018-05-08T19:14:02.365Z,48.80
2018-05-08T19:19:12.302Z,49.30
2018-05-08T19:24:20.064Z,49.20
2018-05-08T19:29:27.563Z,50.70
2018-05-08T19:34:35.818Z,50.60
2018-05-08T19:39:37.197Z,50.40
2018-05-08T19:44:38.675Z,51.50
2018-05-08T19:49:40.955Z,52.50
2018-05-08T19:54:42.471Z,52.40
2018-05-08T19:59:45.018Z,54.50
2018-05-08T20:04:46.457Z,56.70
2018-05-08T20:09:48.041Z,56.40
2018-05-08T20:14:50.470Z,58.00
2018-05-08T20:19:52.707Z,61.50
2018-05-08T20:24:54.231Z,61.30
2018-05-08T20:29:56.420Z,62.40
2018-05-08T20:34:58.992Z,63.00
2018-05-08T20:40:01.184Z,64.30
2018-05-08T20:45:02.840Z,64.10
2018-05-08T20:50:04.363Z,65.40
2018-05-08T20:55:05.762Z,66.80
2018-05-08T21:00:08.015Z,67.10
2018-05-08T21:05:09.435Z,66.00
2018-05-08T21:10:11.920Z,64.40
2018-05-08T21:15:14.168Z,66.00
2018-05-08T21:20:15.614Z,66.80
2018-05-08T21:25:16.988Z,65.90
2018-05-08T21:30:24.332Z,65.50
2018-05-08T21:35:26.461Z,66.00
2018-05-08T21:40:28.477Z,65.30
2018-05-08T21:45:29.931Z,65.10
2018-05-08T21:50:32.330Z,65.40
2018-05-08T21:55:33.851Z,67.00
2018-05-08T22:00:35.453Z,68.00
2018-05-08T22:05:36.871Z,69.50
2018-05-08T22:10:38.269Z,70.20
2018-05-08T22:15:39.768Z,71.30
2018-05-08T22:20:44.119Z,70.90
2018-05-08T22:25:45.647Z,70.50
2018-05-08T22:30:47.211Z,70.80
2018-05-08T22:35:52.724Z,71.60
2018-05-08T22:40:54.406Z,72.90
2018-05-08T22:45:55.837Z,74.50
2018-05-08T22:50:57.313Z,75.00
2018-05-08T22:55:59.404Z,74.70
2018-05-08T23:01:00.666Z,74.70
2018-05-08T23:06:02.008Z,74.30
2018-05-08T23:11:04.218Z,73.70
2018-05-08T23:16:05.983Z,73.50
2018-05-08T23:21:08.297Z,75.10
2018-05-08T23:26:10.656Z,75.20
2018-05-08T23:31:12.051Z,75.20
2018-05-08T23:36:14.981Z,75.60
2018-05-08T23:41:16.510Z,75.40
2018-05-08T23:46:17.939Z,74.90
2018-05-08T23:51:21.313Z,75.90
2018-05-08T23:56:23.178Z,75.90
